Pismo Beach, CA (93448)

9:55 PM PST on February 12, 2016 (GMT -0800)
Pacific Estates | | Change Station
CLOSE
Current Station
Personal Weather Station
Location: Pismo Beach, CA
Elevation: 177 ft
Nearby Weather Stations
Active Advisory: High Surf Advisory

Elev 177 ft 35.15 °N, 120.63 °W | Updated 5 minutes ago

Clear
Clear
55.5 °F
Feels Like 55.5 °F
N
2.6
Wind Variable Wind from East
Gusts 3.7 mph

Today
High -- | Low -- °F
--% Chance of Precip.
Yesterday
High -- | Low -- °F
Precip. -- in
Pressure 30.10 in
Visibility 10.0 miles
Clouds Clear
Dew Point 47 °F
Humidity 73%
Rainfall 0.00 in
Snow Depth Not available.
6:52 AM 5:41 PM
Waxing Crescent, 27% visible
METAR KSBP 130456Z 00000KT 10SM CLR 16/09 A3010 RMK AO2 SLP192 T01560089
Pressure 30.10 in
Visibility 10.0 miles
Clouds Clear
Dew Point 47 °F
Humidity 73%
Rainfall 0.00 in
Snow Depth Not available.
6:52 AM 5:41 PM
Waxing Crescent, 27% visible
METAR KSBP 130456Z 00000KT 10SM CLR 16/09 A3010 RMK AO2 SLP192 T01560089

10-Day Weather Forecast

Almanac

Astronomy

Feb. 12, 2016 Rise Set
Actual Time
Civil Twilight
Nautical Twilight
Astronomical Twilight
Moon
Length of Visible Light
Length of Day
Tomorrow will be .
, % of the Moon is Illuminated

Today's Extremes

State Highs State Lows

Community

WunderPhotos

Upload Photos

1,892,507 photos uploaded!

WunderBlog® & News

Nearby

Air Quality

  Air Quality AQ Index Pollutant
Not available.

Snow Depth

Station Depth Elevation

Earthquake Activity

City Distance Mag. Time & Date
Minimum magnitude displayed is 2.5.

Coastal Water Temperatures

Place Temperature

Stations

Nearby Weather Stations

Station Location Temp. Windchill Dew Point Humidity Wind Precip. Elev Updated Type
                   

Watches & Warnings

High Surf Advisory
Issued: 6:50 PM PST Feb. 12, 2016 – National Weather Service

... High surf advisory remains in effect until 9 am PST Sunday...

* surf and timing... surf of 10 to 15 feet with local sets to 18
feet tonight will gradually subside Saturday through Sunday.

* Impacts... the large surf may cause beach erosion and strong
rip currents that will create a risk of ocean drowning.
Sneaker waves can suddenly overrun previously dry beaches and
jetties around the time of high tide.

* Locations... surf will be highest on west and northwest facing
beaches.

Precautionary/preparedness actions...

A high surf advisory means that high surf and rip currents will
make swimming and rock jetties dangerous.

Remember... if caught in a rip current... swim parallel to shore
until you are free of the powerful current. Always swim near a
lifeguard.